Saint-Jerome, Canada
Current Conditions -  °F | °C
As of 5:00 AM on Friday 21 Nov 2014 (Local Time) from CYMX Reporting Station
Few Clouds Few Clouds  
Wind Chill: -12°   Ceiling: Unl
Heat Index: -8°   Visibility: 25mi
Dew Point: -12°   Wind: 5mph
Humidity: 73%   Direction: 260°W
Pressure: 29.96"   Gusts: NA
Location:  45.77°N, 74°W
Report Text: CYMX 211000Z 26004KT 230V290 25SM FEW030 FEW100 M08/M12 A2996 RMK SC1AC2 SC TR SLP152
Loading
Personal Weather Stations






























Interactive Weather Map New forecast layout! Learn more

10-Day Weather Forecast

Advertisements
Track Severe Weather on mobile